Seabreeze — VABC8 — position and weather

sailwx.info

Track history (hours):
 
Tides and Currents Weather Stations Pressure Air Temp Water Temp Dewpoint Dewpoint Depression Visibility Wind Speed Wind Dir Waves Ship Positions

Seabreeze

Last reported at 2018-Feb-20 08:04 UTC. Time now 2018-Feb-20 17:44 UTC.
Position S 27°31' E 153°24'.

Length 20 m.

Type: Ship. MMSI: 503760000.

Date/timePositionNaut miles runAvg speedWind from/ knotsBaromVisibWave heightAir tempDewpointWater temp
2018-Feb-20 08:04S 27°31' E 153°24'6 5.8
2018-Feb-20 07:06S 27°32' E 153°18'0 0.0
2018-Feb-18 07:15S 27°32' E 153°18'6 3.7
2018-Feb-18 05:44S 27°31' E 153°24'0 0.1
2018-Feb-18 01:40S 27°30' E 153°24'410.4
2018-Feb-18 01:18S 27°32' E 153°20'4 3.0
2018-Feb-18 00:06S 27°31' E 153°24'0 0.3
2018-Feb-17 23:39S 27°30' E 153°24'410.9
2018-Feb-17 23:15S 27°32' E 153°19'4 3.7
2018-Feb-17 22:03S 27°30' E 153°24'0 0.3
2018-Feb-17 21:50S 27°30' E 153°24'1 0.1
2018-Feb-17 08:06S 27°31' E 153°24'1 2.1
2018-Feb-17 07:47S 27°30' E 153°24'6 9.4
2018-Feb-17 07:12S 27°33' E 153°18'5 4.4
2018-Feb-17 06:07S 27°31' E 153°23'1 3.6
2018-Feb-17 05:52S 27°30' E 153°24'5 8.5
2018-Feb-17 05:14S 27°33' E 153°18'5 1.5
2018-Feb-17 02:08S 27°31' E 153°23'0 0.1
2018-Feb-17 01:41S 27°31' E 153°23'510.6
2018-Feb-17 01:14S 27°33' E 153°18'5 4.4
2018-Feb-17 00:05S 27°31' E 153°24'0 0.8
2018-Feb-16 23:38S 27°31' E 153°23'510.6
2018-Feb-16 23:10S 27°32' E 153°18'5 4.6
2018-Feb-16 22:06S 27°31' E 153°24'5 5.8
2018-Feb-16 21:10S 27°32' E 153°18'6 0.5
2018-Feb-16 09:55S 27°30' E 153°24'4 7.3
2018-Feb-16 09:18S 27°32' E 153°19'1 0.4
2018-Feb-16 07:18S 27°33' E 153°18'0 0.0
2018-Feb-16 01:15S 27°32' E 153°18'0 0.1
2018-Feb-15 23:10S 27°32' E 153°18'6 5.2
2018-Feb-15 22:04S 27°30' E 153°24'1 1.8
2018-Feb-15 21:41S 27°31' E 153°23'510.2
2018-Feb-15 21:13S 27°33' E 153°18'6 0.4
2018-Feb-15 08:00S 27°30' E 153°24'5 6.6
2018-Feb-15 07:12S 27°33' E 153°19'5 4.8
2018-Feb-15 06:04S 27°30' E 153°24'0 0.9
2018-Feb-15 05:48S 27°30' E 153°24'5 9.3
2018-Feb-15 05:14S 27°33' E 153°19'5 3.5
2018-Feb-15 03:44S 27°30' E 153°24'5 9.6
2018-Feb-15 03:11S 27°33' E 153°18'2 0.9
2018-Feb-15 01:22S 27°32' E 153°20'4 2.9
2018-Feb-15 00:07S 27°31' E 153°24'1 1.3
2018-Feb-14 23:44S 27°30' E 153°24'5 9.8
2018-Feb-14 23:11S 27°33' E 153°19'5 4.8
2018-Feb-14 22:05S 27°30' E 153°24'1 1.4
2018-Feb-14 21:39S 27°31' E 153°24'510.4
2018-Feb-14 21:11S 27°33' E 153°18'5 0.4
2018-Feb-14 08:01S 27°30' E 153°24'1 2.5
2018-Feb-14 07:44S 27°31' E 153°24'3 9.7
2018-Feb-14 07:28S 27°32' E 153°21'3 7.1
2018-Feb-14 07:00S 27°32' E 153°17'6 6.6
2018-Feb-14 06:04S 27°31' E 153°24'0 2.2
2018-Feb-14 05:54S 27°30' E 153°24'3 7.6
2018-Feb-14 05:29S 27°32' E 153°21'2 1.7
2018-Feb-14 04:06S 27°31' E 153°24'1 7.5
2018-Feb-14 04:00S 27°30' E 153°24'4 6.2
2018-Feb-14 03:22S 27°32' E 153°20'4 2.9
2018-Feb-14 02:01S 27°30' E 153°24'0 0.3
2018-Feb-14 01:47S 27°30' E 153°24'3 8.1
2018-Feb-14 01:28S 27°32' E 153°22'2 1.5
2018-Feb-14 00:04S 27°31' E 153°24'0 1.1
2018-Feb-13 23:38S 27°31' E 153°23'310.3
2018-Feb-13 23:22S 27°32' E 153°20'4 2.8
2018-Feb-13 22:03S 27°30' E 153°24'0 0.3
2018-Feb-13 21:50S 27°30' E 153°24'3 7.7
2018-Feb-13 21:30S 27°32' E 153°22'4 5.5
2018-Feb-13 20:46S 27°32' E 153°17'6 0.5
2018-Feb-13 08:02S 27°30' E 153°24'0 9.8
2018-Feb-13 08:00S 27°30' E 153°24'3 5.3
2018-Feb-13 07:24S 27°32' E 153°21'3 7.9
2018-Feb-13 06:59S 27°32' E 153°17'6 6.8
2018-Feb-13 06:03S 27°30' E 153°24'1 2.7
2018-Feb-13 05:35S 27°31' E 153°23'210.3
2018-Feb-13 05:20S 27°32' E 153°20'3 7.7
2018-Feb-13 04:58S 27°32' E 153°17'6 6.5
2018-Feb-13 04:07S 27°31' E 153°23'1 9.0
2018-Feb-13 04:00S 27°30' E 153°24'2 4.1
2018-Feb-13 03:30S 27°31' E 153°22'4 7.7
2018-Feb-13 02:55S 27°32' E 153°17'6 7.5
2018-Feb-13 02:06S 27°31' E 153°24'0 0.7
2018-Feb-13 01:45S 27°30' E 153°24'4 9.6
2018-Feb-13 01:17S 27°32' E 153°19'2 6.0
2018-Feb-13 00:56S 27°32' E 153°17'6 7.0
2018-Feb-13 00:07S 27°31' E 153°24'1 2.2
2018-Feb-12 23:45S 27°30' E 153°24'6 9.5
2018-Feb-12 23:10S 27°33' E 153°18'5 4.7
2018-Feb-12 22:05S 27°31' E 153°24'0 2.6
2018-Feb-12 21:53S 27°30' E 153°24'2 4.6
2018-Feb-12 21:29S 27°31' E 153°22'5 9.6
2018-Feb-12 20:59S 27°32' E 153°17'0 0.0
2018-Feb-12 20:29S 27°32' E 153°17'0 0.0
2018-Feb-12 08:46S 27°32' E 153°17'6 8.4
2018-Feb-12 08:01S 27°30' E 153°24'1 2.2
2018-Feb-12 07:43S 27°31' E 153°24'410.5
2018-Feb-12 07:23S 27°32' E 153°20'4 2.9
2018-Feb-12 06:08S 27°31' E 153°24'1 2.7
2018-Feb-12 05:54S 27°30' E 153°24'3 7.0
2018-Feb-12 05:29S 27°32' E 153°21'3 2.0
2018-Feb-12 04:11S 27°30' E 153°24'0 0.9
2018-Feb-12 03:52S 27°30' E 153°24'4 8.5
2018-Feb-12 03:25S 27°32' E 153°20'4 2.8
2018-Feb-12 02:10S 27°31' E 153°24'0 2.8
2018-Feb-12 02:00S 27°30' E 153°24'3 5.4
2018-Feb-12 01:27S 27°32' E 153°21'2 1.7
2018-Feb-12 00:08S 27°31' E 153°24'1 2.9
2018-Feb-11 23:53S 27°30' E 153°24'4 8.5
2018-Feb-11 23:26S 27°32' E 153°20'3 2.4
2018-Feb-11 22:08S 27°31' E 153°24'1 1.8
2018-Feb-11 21:45S 27°30' E 153°24'3 9.9
2018-Feb-11 21:26S 27°32' E 153°21'3 7.8
2018-Feb-11 21:00S 27°32' E 153°17'0 0.0
2018-Feb-11 20:27S 27°32' E 153°17'0 0.0
2018-Feb-11 10:56S 27°32' E 153°17'6 7.6
2018-Feb-11 10:09S 27°31' E 153°24'0 1.9
2018-Feb-11 09:56S 27°30' E 153°24'4 9.8
2018-Feb-11 09:28S 27°32' E 153°19'1 1.2
2018-Feb-11 08:44S 27°33' E 153°19'2 1.5
2018-Feb-11 07:25S 27°32' E 153°21'3 2.0
2018-Feb-11 06:10S 27°31' E 153°24'1 2.1
2018-Feb-11 05:50S 27°30' E 153°24'4 8.6
2018-Feb-11 05:24S 27°32' E 153°20'4 2.7
2018-Feb-11 04:03S 27°30' E 153°24'0 0.9
2018-Feb-11 03:59S 27°30' E 153°24'3 5.7
2018-Feb-11 03:28S 27°32' E 153°21'4 7.5
2018-Feb-11 02:59S 27°32' E 153°17'6 6.6
2018-Feb-11 02:06S 27°31' E 153°24'1 3.1
2018-Feb-11 01:53S 27°30' E 153°24'3 6.7
2018-Feb-11 01:23S 27°32' E 153°21'3 7.4
2018-Feb-11 00:57S 27°32' E 153°17'6 6.7
2018-Feb-11 00:06S 27°31' E 153°24'1 1.9
2018-Feb-10 23:42S 27°30' E 153°24'410.0
2018-Feb-10 23:21S 27°32' E 153°20'3 2.5
2018-Feb-10 22:08S 27°31' E 153°24'1 1.3
2018-Feb-10 21:39S 27°31' E 153°23'210.2
2018-Feb-10 21:29S 27°32' E 153°21'4 6.6
2018-Feb-10 20:55S 27°32' E 153°17'0 0.0
2018-Feb-10 20:28S 27°32' E 153°17'6 0.5
2018-Feb-10 08:04S 27°31' E 153°24'  
Track history (hours):
 
Tides and Currents Weather Stations Pressure Air Temp Water Temp Dewpoint Dewpoint Depression Visibility Wind Speed Wind Dir Waves Ship Positions

Seabreeze

Last reported at 2018-Feb-20 08:04 UTC. Time now 2018-Feb-20 17:44 UTC.
Position S 27°31' E 153°24'.

Length 20 m.

Type: Ship. MMSI: 503760000.

Date/timePositionNaut miles runAvg speedWind from/ knotsBaromVisibWave heightAir tempDewpointWater temp
2018-Feb-20 08:04S 27°31' E 153°24'6 5.8
2018-Feb-20 07:06S 27°32' E 153°18'0 0.0
2018-Feb-18 07:15S 27°32' E 153°18'6 3.7
2018-Feb-18 05:44S 27°31' E 153°24'0 0.1
2018-Feb-18 01:40S 27°30' E 153°24'410.4
2018-Feb-18 01:18S 27°32' E 153°20'4 3.0
2018-Feb-18 00:06S 27°31' E 153°24'0 0.3
2018-Feb-17 23:39S 27°30' E 153°24'410.9
2018-Feb-17 23:15S 27°32' E 153°19'4 3.7
2018-Feb-17 22:03S 27°30' E 153°24'0 0.3
2018-Feb-17 21:50S 27°30' E 153°24'1 0.1
2018-Feb-17 08:06S 27°31' E 153°24'1 2.1
2018-Feb-17 07:47S 27°30' E 153°24'6 9.4
2018-Feb-17 07:12S 27°33' E 153°18'5 4.4
2018-Feb-17 06:07S 27°31' E 153°23'1 3.6
2018-Feb-17 05:52S 27°30' E 153°24'5 8.5
2018-Feb-17 05:14S 27°33' E 153°18'5 1.5
2018-Feb-17 02:08S 27°31' E 153°23'0 0.1
2018-Feb-17 01:41S 27°31' E 153°23'510.6
2018-Feb-17 01:14S 27°33' E 153°18'5 4.4
2018-Feb-17 00:05S 27°31' E 153°24'0 0.8
2018-Feb-16 23:38S 27°31' E 153°23'510.6
2018-Feb-16 23:10S 27°32' E 153°18'5 4.6
2018-Feb-16 22:06S 27°31' E 153°24'5 5.8
2018-Feb-16 21:10S 27°32' E 153°18'6 0.5
2018-Feb-16 09:55S 27°30' E 153°24'4 7.3
2018-Feb-16 09:18S 27°32' E 153°19'1 0.4
2018-Feb-16 07:18S 27°33' E 153°18'0 0.0
2018-Feb-16 01:15S 27°32' E 153°18'0 0.1
2018-Feb-15 23:10S 27°32' E 153°18'6 5.2
2018-Feb-15 22:04S 27°30' E 153°24'1 1.8
2018-Feb-15 21:41S 27°31' E 153°23'510.2
2018-Feb-15 21:13S 27°33' E 153°18'6 0.4
2018-Feb-15 08:00S 27°30' E 153°24'5 6.6
2018-Feb-15 07:12S 27°33' E 153°19'5 4.8
2018-Feb-15 06:04S 27°30' E 153°24'0 0.9
2018-Feb-15 05:48S 27°30' E 153°24'5 9.3
2018-Feb-15 05:14S 27°33' E 153°19'5 3.5
2018-Feb-15 03:44S 27°30' E 153°24'5 9.6
2018-Feb-15 03:11S 27°33' E 153°18'2 0.9
2018-Feb-15 01:22S 27°32' E 153°20'4 2.9
2018-Feb-15 00:07S 27°31' E 153°24'1 1.3
2018-Feb-14 23:44S 27°30' E 153°24'5 9.8
2018-Feb-14 23:11S 27°33' E 153°19'5 4.8
2018-Feb-14 22:05S 27°30' E 153°24'1 1.4
2018-Feb-14 21:39S 27°31' E 153°24'510.4
2018-Feb-14 21:11S 27°33' E 153°18'5 0.4
2018-Feb-14 08:01S 27°30' E 153°24'1 2.5
2018-Feb-14 07:44S 27°31' E 153°24'3 9.7
2018-Feb-14 07:28S 27°32' E 153°21'3 7.1
2018-Feb-14 07:00S 27°32' E 153°17'6 6.6
2018-Feb-14 06:04S 27°31' E 153°24'0 2.2
2018-Feb-14 05:54S 27°30' E 153°24'3 7.6
2018-Feb-14 05:29S 27°32' E 153°21'2 1.7
2018-Feb-14 04:06S 27°31' E 153°24'1 7.5
2018-Feb-14 04:00S 27°30' E 153°24'4 6.2
2018-Feb-14 03:22S 27°32' E 153°20'4 2.9
2018-Feb-14 02:01S 27°30' E 153°24'0 0.3
2018-Feb-14 01:47S 27°30' E 153°24'3 8.1
2018-Feb-14 01:28S 27°32' E 153°22'2 1.5
2018-Feb-14 00:04S 27°31' E 153°24'0 1.1
2018-Feb-13 23:38S 27°31' E 153°23'310.3
2018-Feb-13 23:22S 27°32' E 153°20'4 2.8
2018-Feb-13 22:03S 27°30' E 153°24'0 0.3
2018-Feb-13 21:50S 27°30' E 153°24'3 7.7
2018-Feb-13 21:30S 27°32' E 153°22'4 5.5
2018-Feb-13 20:46S 27°32' E 153°17'6 0.5
2018-Feb-13 08:02S 27°30' E 153°24'0 9.8
2018-Feb-13 08:00S 27°30' E 153°24'3 5.3
2018-Feb-13 07:24S 27°32' E 153°21'3 7.9
2018-Feb-13 06:59S 27°32' E 153°17'6 6.8
2018-Feb-13 06:03S 27°30' E 153°24'1 2.7
2018-Feb-13 05:35S 27°31' E 153°23'210.3
2018-Feb-13 05:20S 27°32' E 153°20'3 7.7
2018-Feb-13 04:58S 27°32' E 153°17'6 6.5
2018-Feb-13 04:07S 27°31' E 153°23'1 9.0
2018-Feb-13 04:00S 27°30' E 153°24'2 4.1
2018-Feb-13 03:30S 27°31' E 153°22'4 7.7
2018-Feb-13 02:55S 27°32' E 153°17'6 7.5
2018-Feb-13 02:06S 27°31' E 153°24'0 0.7
2018-Feb-13 01:45S 27°30' E 153°24'4 9.6
2018-Feb-13 01:17S 27°32' E 153°19'2 6.0
2018-Feb-13 00:56S 27°32' E 153°17'6 7.0
2018-Feb-13 00:07S 27°31' E 153°24'1 2.2
2018-Feb-12 23:45S 27°30' E 153°24'6 9.5
2018-Feb-12 23:10S 27°33' E 153°18'5 4.7
2018-Feb-12 22:05S 27°31' E 153°24'0 2.6
2018-Feb-12 21:53S 27°30' E 153°24'2 4.6
2018-Feb-12 21:29S 27°31' E 153°22'5 9.6
2018-Feb-12 20:59S 27°32' E 153°17'0 0.0
2018-Feb-12 20:29S 27°32' E 153°17'0 0.0
2018-Feb-12 08:46S 27°32' E 153°17'6 8.4
2018-Feb-12 08:01S 27°30' E 153°24'1 2.2
2018-Feb-12 07:43S 27°31' E 153°24'410.5
2018-Feb-12 07:23S 27°32' E 153°20'4 2.9
2018-Feb-12 06:08S 27°31' E 153°24'1 2.7
2018-Feb-12 05:54S 27°30' E 153°24'3 7.0
2018-Feb-12 05:29S 27°32' E 153°21'3 2.0
2018-Feb-12 04:11S 27°30' E 153°24'0 0.9
2018-Feb-12 03:52S 27°30' E 153°24'4 8.5
2018-Feb-12 03:25S 27°32' E 153°20'4 2.8
2018-Feb-12 02:10S 27°31' E 153°24'0 2.8
2018-Feb-12 02:00S 27°30' E 153°24'3 5.4
2018-Feb-12 01:27S 27°32' E 153°21'2 1.7
2018-Feb-12 00:08S 27°31' E 153°24'1 2.9
2018-Feb-11 23:53S 27°30' E 153°24'4 8.5
2018-Feb-11 23:26S 27°32' E 153°20'3 2.4
2018-Feb-11 22:08S 27°31' E 153°24'1 1.8
2018-Feb-11 21:45S 27°30' E 153°24'3 9.9
2018-Feb-11 21:26S 27°32' E 153°21'3 7.8
2018-Feb-11 21:00S 27°32' E 153°17'0 0.0
2018-Feb-11 20:27S 27°32' E 153°17'0 0.0
2018-Feb-11 10:56S 27°32' E 153°17'6 7.6
2018-Feb-11 10:09S 27°31' E 153°24'0 1.9
2018-Feb-11 09:56S 27°30' E 153°24'4 9.8
2018-Feb-11 09:28S 27°32' E 153°19'1 1.2
2018-Feb-11 08:44S 27°33' E 153°19'2 1.5
2018-Feb-11 07:25S 27°32' E 153°21'3 2.0
2018-Feb-11 06:10S 27°31' E 153°24'1 2.1
2018-Feb-11 05:50S 27°30' E 153°24'4 8.6
2018-Feb-11 05:24S 27°32' E 153°20'4 2.7
2018-Feb-11 04:03S 27°30' E 153°24'0 0.9
2018-Feb-11 03:59S 27°30' E 153°24'3 5.7
2018-Feb-11 03:28S 27°32' E 153°21'4 7.5
2018-Feb-11 02:59S 27°32' E 153°17'6 6.6
2018-Feb-11 02:06S 27°31' E 153°24'1 3.1
2018-Feb-11 01:53S 27°30' E 153°24'3 6.7
2018-Feb-11 01:23S 27°32' E 153°21'3 7.4
2018-Feb-11 00:57S 27°32' E 153°17'6 6.7
2018-Feb-11 00:06S 27°31' E 153°24'1 1.9
2018-Feb-10 23:42S 27°30' E 153°24'410.0
2018-Feb-10 23:21S 27°32' E 153°20'3 2.5
2018-Feb-10 22:08S 27°31' E 153°24'1 1.3
2018-Feb-10 21:39S 27°31' E 153°23'210.2
2018-Feb-10 21:29S 27°32' E 153°21'4 6.6
2018-Feb-10 20:55S 27°32' E 153°17'0 0.0
2018-Feb-10 20:28S 27°32' E 153°17'6 0.5
2018-Feb-10 08:04S 27°31' E 153°24'  

Dump ship's entire track history